sensor_id;sensor_type;location;lat;lon;timestamp;P1;durP1;ratioP1;P2;durP2;ratioP2
48285;SDS011;34102;47.716;10.296;2022-09-03T05:30:33;6.97;;;4.05;;
48285;SDS011;34102;47.716;10.296;2022-09-03T05:32:58;8.75;;;4.55;;
48285;SDS011;34102;47.716;10.296;2022-09-03T05:35:23;7.88;;;4.78;;
48285;SDS011;34102;47.716;10.296;2022-09-03T05:37:49;6.55;;;4.68;;
48285;SDS011;34102;47.716;10.296;2022-09-03T05:40:14;5.47;;;4.68;;
48285;SDS011;34102;47.716;10.296;2022-09-03T05:42:39;6.10;;;4.53;;
48285;SDS011;34102;47.716;10.296;2022-09-03T05:45:06;5.97;;;4.65;;
48285;SDS011;34102;47.716;10.296;2022-09-03T05:47:35;6.10;;;4.97;;
48285;SDS011;34102;47.716;10.296;2022-09-03T05:50:00;6.88;;;5.00;;
48285;SDS011;34102;47.716;10.296;2022-09-03T05:52:26;7.32;;;4.43;;
48285;SDS011;34102;47.716;10.296;2022-09-03T05:54:52;7.53;;;4.72;;
48285;SDS011;34102;47.716;10.296;2022-09-03T05:57:17;8.63;;;5.97;;
48285;SDS011;34102;47.716;10.296;2022-09-03T05:59:42;8.23;;;5.80;;
48285;SDS011;34102;47.716;10.296;2022-09-03T06:02:07;7.03;;;5.47;;
48285;SDS011;34102;47.716;10.296;2022-09-03T06:04:33;10.43;;;6.30;;
48285;SDS011;34102;47.716;10.296;2022-09-03T06:06:58;6.72;;;4.32;;
48285;SDS011;34102;47.716;10.296;2022-09-03T06:09:23;6.70;;;4.45;;
48285;SDS011;34102;47.716;10.296;2022-09-03T06:11:49;4.03;;;3.55;;
48285;SDS011;34102;47.716;10.296;2022-09-03T06:14:14;6.53;;;3.50;;
48285;SDS011;34102;47.716;10.296;2022-09-03T06:16:41;7.72;;;3.90;;
48285;SDS011;34102;47.716;10.296;2022-09-03T06:19:07;9.48;;;4.10;;
48285;SDS011;34102;47.716;10.296;2022-09-03T06:21:40;7.75;;;4.38;;
48285;SDS011;34102;47.716;10.296;2022-09-03T06:24:09;4.40;;;3.55;;
48285;SDS011;34102;47.716;10.296;2022-09-03T06:26:35;4.75;;;3.67;;
48285;SDS011;34102;47.716;10.296;2022-09-03T06:29:01;4.50;;;3.30;;
48285;SDS011;34102;47.716;10.296;2022-09-03T06:31:26;5.10;;;3.33;;
48285;SDS011;34102;47.716;10.296;2022-09-03T06:33:52;4.05;;;3.40;;
48285;SDS011;34102;47.716;10.296;2022-09-03T06:36:18;3.95;;;3.50;;
48285;SDS011;34102;47.716;10.296;2022-09-03T06:38:44;3.50;;;3.20;;
48285;SDS011;34102;47.716;10.296;2022-09-03T06:41:11;3.53;;;3.15;;
48285;SDS011;34102;47.716;10.296;2022-09-03T06:43:37;3.97;;;3.45;;
48285;SDS011;34102;47.716;10.296;2022-09-03T06:46:07;4.50;;;3.75;;
48285;SDS011;34102;47.716;10.296;2022-09-03T06:48:33;3.08;;;2.78;;
48285;SDS011;34102;47.716;10.296;2022-09-03T06:51:00;3.83;;;3.40;;
48285;SDS011;34102;47.716;10.296;2022-09-03T06:53:26;3.13;;;2.83;;
48285;SDS011;34102;47.716;10.296;2022-09-03T06:55:52;3.90;;;3.00;;
48285;SDS011;34102;47.716;10.296;2022-09-03T06:58:18;5.72;;;3.03;;
48285;SDS011;34102;47.716;10.296;2022-09-03T07:00:43;3.20;;;2.50;;
48285;SDS011;34102;47.716;10.296;2022-09-03T07:03:09;4.85;;;2.97;;
48285;SDS011;34102;47.716;10.296;2022-09-03T07:05:34;3.13;;;2.60;;
48285;SDS011;34102;47.716;10.296;2022-09-03T07:07:59;4.77;;;2.90;;
48285;SDS011;34102;47.716;10.296;2022-09-03T07:10:25;4.50;;;2.90;;
48285;SDS011;34102;47.716;10.296;2022-09-03T07:12:52;4.03;;;2.70;;
48285;SDS011;34102;47.716;10.296;2022-09-03T07:15:18;4.65;;;2.30;;
48285;SDS011;34102;47.716;10.296;2022-09-03T07:17:43;13.88;;;6.28;;
48285;SDS011;34102;47.716;10.296;2022-09-03T07:20:09;6.57;;;4.17;;
48285;SDS011;34102;47.716;10.296;2022-09-03T07:22:34;4.93;;;2.90;;
48285;SDS011;34102;47.716;10.296;2022-09-03T07:24:59;3.97;;;2.70;;
48285;SDS011;34102;47.716;10.296;2022-09-03T07:27:25;6.13;;;3.17;;
48285;SDS011;34102;47.716;10.296;2022-09-03T07:29:51;3.40;;;3.03;;
48285;SDS011;34102;47.716;10.296;2022-09-03T07:32:16;4.87;;;3.53;;
48285;SDS011;34102;47.716;10.296;2022-09-03T07:34:41;3.63;;;2.80;;
48285;SDS011;34102;47.716;10.296;2022-09-03T07:37:06;2.50;;;2.30;;
48285;SDS011;34102;47.716;10.296;2022-09-03T07:39:32;3.67;;;2.20;;
48285;SDS011;34102;47.716;10.296;2022-09-03T07:41:58;2.80;;;2.40;;
48285;SDS011;34102;47.716;10.296;2022-09-03T07:44:24;3.40;;;2.42;;
48285;SDS011;34102;47.716;10.296;2022-09-03T07:46:49;2.55;;;2.10;;
48285;SDS011;34102;47.716;10.296;2022-09-03T07:49:14;2.23;;;1.93;;
48285;SDS011;34102;47.716;10.296;2022-09-03T07:51:41;2.33;;;2.03;;
48285;SDS011;34102;47.716;10.296;2022-09-03T07:54:07;2.60;;;2.03;;
48285;SDS011;34102;47.716;10.296;2022-09-03T07:56:34;3.10;;;2.28;;
48285;SDS011;34102;47.716;10.296;2022-09-03T07:59:00;2.72;;;1.58;;
48285;SDS011;34102;47.716;10.296;2022-09-03T08:01:25;4.85;;;1.95;;
48285;SDS011;34102;47.716;10.296;2022-09-03T08:03:52;2.58;;;1.65;;
48285;SDS011;34102;47.716;10.296;2022-09-03T08:06:19;3.40;;;1.50;;
48285;SDS011;34102;47.716;10.296;2022-09-03T08:08:45;2.33;;;1.45;;
48285;SDS011;34102;47.716;10.296;2022-09-03T08:11:12;1.83;;;1.33;;
48285;SDS011;34102;47.716;10.296;2022-09-03T08:13:38;1.77;;;1.60;;
48285;SDS011;34102;47.716;10.296;2022-09-03T08:16:04;2.30;;;1.63;;
48285;SDS011;34102;47.716;10.296;2022-09-03T08:18:30;1.38;;;1.27;;
48285;SDS011;34102;47.716;10.296;2022-09-03T08:20:59;4.18;;;1.77;;
48285;SDS011;34102;47.716;10.296;2022-09-03T08:23:24;1.83;;;1.40;;
48285;SDS011;34102;47.716;10.296;2022-09-03T08:25:56;2.65;;;1.45;;
48285;SDS011;34102;47.716;10.296;2022-09-03T08:28:22;3.58;;;1.42;;
48285;SDS011;34102;47.716;10.296;2022-09-03T08:30:47;5.07;;;1.73;;
48285;SDS011;34102;47.716;10.296;2022-09-03T08:33:13;1.98;;;1.23;;
48285;SDS011;34102;47.716;10.296;2022-09-03T08:35:38;2.20;;;1.10;;
48285;SDS011;34102;47.716;10.296;2022-09-03T08:38:03;2.20;;;1.30;;
48285;SDS011;34102;47.716;10.296;2022-09-03T08:40:31;2.35;;;1.23;;
48285;SDS011;34102;47.716;10.296;2022-09-03T08:43:09;1.20;;;1.10;;
48285;SDS011;34102;47.716;10.296;2022-09-03T08:45:37;1.35;;;1.13;;
48285;SDS011;34102;47.716;10.296;2022-09-03T08:48:08;1.98;;;1.15;;
48285;SDS011;34102;47.716;10.296;2022-09-03T08:50:38;2.75;;;1.42;;
48285;SDS011;34102;47.716;10.296;2022-09-03T08:55:30;2.80;;;1.60;;
48285;SDS011;34102;47.716;10.296;2022-09-03T08:58:11;1.48;;;1.30;;
48285;SDS011;34102;47.716;10.296;2022-09-03T09:00:45;1.38;;;1.20;;
48285;SDS011;34102;47.716;10.296;2022-09-03T09:16:21;0.98;;;0.60;;
48285;SDS011;34102;47.716;10.296;2022-09-03T09:21:36;1.13;;;0.60;;
48285;SDS011;34102;47.716;10.296;2022-09-03T09:24:12;1.20;;;0.80;;
48285;SDS011;34102;47.716;10.296;2022-09-03T09:26:43;1.48;;;0.90;;
48285;SDS011;34102;47.716;10.296;2022-09-03T09:29:09;2.17;;;1.05;;
48285;SDS011;34102;47.716;10.296;2022-09-03T09:31:36;3.08;;;0.90;;
48285;SDS011;34102;47.716;10.296;2022-09-03T09:34:05;1.55;;;0.80;;
48285;SDS011;34102;47.716;10.296;2022-09-03T09:36:40;8.23;;;3.75;;
48285;SDS011;34102;47.716;10.296;2022-09-03T09:39:07;1.55;;;1.13;;
48285;SDS011;34102;47.716;10.296;2022-09-03T09:41:33;1.58;;;0.80;;
48285;SDS011;34102;47.716;10.296;2022-09-03T09:43:59;0.80;;;0.60;;
48285;SDS011;34102;47.716;10.296;2022-09-03T09:46:28;0.88;;;0.70;;
48285;SDS011;34102;47.716;10.296;2022-09-03T09:48:58;1.88;;;0.50;;
48285;SDS011;34102;47.716;10.296;2022-09-03T09:51:25;1.08;;;0.60;;
48285;SDS011;34102;47.716;10.296;2022-09-03T09:54:01;1.10;;;0.65;;
48285;SDS011;34102;47.716;10.296;2022-09-03T09:56:27;1.05;;;0.90;;
48285;SDS011;34102;47.716;10.296;2022-09-03T09:59:05;0.90;;;0.47;;
48285;SDS011;34102;47.716;10.296;2022-09-03T10:01:31;2.13;;;0.73;;
48285;SDS011;34102;47.716;10.296;2022-09-03T10:04:00;2.13;;;0.70;;
48285;SDS011;34102;47.716;10.296;2022-09-03T10:06:32;2.25;;;1.00;;
48285;SDS011;34102;47.716;10.296;2022-09-03T10:09:17;4.90;;;0.83;;
48285;SDS011;34102;47.716;10.296;2022-09-03T10:11:46;2.17;;;0.55;;
48285;SDS011;34102;47.716;10.296;2022-09-03T10:14:28;1.65;;;0.75;;
48285;SDS011;34102;47.716;10.296;2022-09-03T10:22:48;0.93;;;0.60;;
48285;SDS011;34102;47.716;10.296;2022-09-03T10:25:16;1.13;;;0.70;;
48285;SDS011;34102;47.716;10.296;2022-09-03T10:27:41;1.00;;;0.60;;
48285;SDS011;34102;47.716;10.296;2022-09-03T10:30:09;0.60;;;0.52;;
48285;SDS011;34102;47.716;10.296;2022-09-03T10:37:36;1.67;;;0.50;;
48285;SDS011;34102;47.716;10.296;2022-09-03T10:42:36;1.60;;;0.95;;
48285;SDS011;34102;47.716;10.296;2022-09-03T10:45:12;2.55;;;0.65;;
48285;SDS011;34102;47.716;10.296;2022-09-03T10:50:21;1.30;;;0.60;;
48285;SDS011;34102;47.716;10.296;2022-09-03T10:53:06;1.00;;;0.70;;
48285;SDS011;34102;47.716;10.296;2022-09-03T11:00:25;1.20;;;0.80;;
48285;SDS011;34102;47.716;10.296;2022-09-03T11:05:39;1.00;;;0.63;;
48285;SDS011;34102;47.716;10.296;2022-09-03T11:08:26;1.00;;;0.70;;
48285;SDS011;34102;47.716;10.296;2022-09-03T11:10:56;1.23;;;0.88;;
48285;SDS011;34102;47.716;10.296;2022-09-03T11:13:25;1.33;;;0.82;;
48285;SDS011;34102;47.716;10.296;2022-09-03T11:15:52;3.10;;;1.05;;
48285;SDS011;34102;47.716;10.296;2022-09-03T11:18:26;1.33;;;0.90;;
48285;SDS011;34102;47.716;10.296;2022-09-03T11:20:54;1.90;;;1.30;;
48285;SDS011;34102;47.716;10.296;2022-09-03T11:23:20;1.45;;;1.30;;
48285;SDS011;34102;47.716;10.296;2022-09-03T11:25:53;1.88;;;1.27;;
48285;SDS011;34102;47.716;10.296;2022-09-03T11:28:26;1.40;;;1.23;;
48285;SDS011;34102;47.716;10.296;2022-09-03T11:31:08;1.60;;;1.20;;
48285;SDS011;34102;47.716;10.296;2022-09-03T11:33:38;1.02;;;0.93;;
48285;SDS011;34102;47.716;10.296;2022-09-03T11:36:05;1.60;;;1.13;;
48285;SDS011;34102;47.716;10.296;2022-09-03T11:38:31;2.95;;;1.00;;
48285;SDS011;34102;47.716;10.296;2022-09-03T11:40:58;1.58;;;1.30;;
48285;SDS011;34102;47.716;10.296;2022-09-03T11:51:01;2.10;;;1.40;;
48285;SDS011;34102;47.716;10.296;2022-09-03T11:53:36;1.80;;;1.02;;
48285;SDS011;34102;47.716;10.296;2022-09-03T11:58:39;1.60;;;1.50;;
48285;SDS011;34102;47.716;10.296;2022-09-03T12:01:13;2.95;;;1.00;;
48285;SDS011;34102;47.716;10.296;2022-09-03T12:14:20;1.30;;;1.08;;
48285;SDS011;34102;47.716;10.296;2022-09-03T12:21:47;4.20;;;0.52;;
48285;SDS011;34102;47.716;10.296;2022-09-03T12:24:13;1.50;;;0.50;;
48285;SDS011;34102;47.716;10.296;2022-09-03T12:26:40;0.70;;;0.30;;
48285;SDS011;34102;47.716;10.296;2022-09-03T12:29:06;0.50;;;0.32;;
48285;SDS011;34102;47.716;10.296;2022-09-03T12:31:32;1.90;;;0.40;;
48285;SDS011;34102;47.716;10.296;2022-09-03T12:34:13;0.73;;;0.32;;
48285;SDS011;34102;47.716;10.296;2022-09-03T12:36:46;0.63;;;0.32;;
48285;SDS011;34102;47.716;10.296;2022-09-03T12:39:13;1.15;;;0.55;;
48285;SDS011;34102;47.716;10.296;2022-09-03T12:41:45;1.95;;;0.30;;
48285;SDS011;34102;47.716;10.296;2022-09-03T12:44:22;1.42;;;0.40;;
48285;SDS011;34102;47.716;10.296;2022-09-03T12:46:59;13.90;;;6.88;;
48285;SDS011;34102;47.716;10.296;2022-09-03T12:49:24;1.27;;;0.37;;
48285;SDS011;34102;47.716;10.296;2022-09-03T12:51:50;3.05;;;0.45;;
48285;SDS011;34102;47.716;10.296;2022-09-03T12:54:15;0.68;;;0.20;;
48285;SDS011;34102;47.716;10.296;2022-09-03T12:56:42;1.98;;;0.30;;
48285;SDS011;34102;47.716;10.296;2022-09-03T12:59:10;1.48;;;0.30;;
48285;SDS011;34102;47.716;10.296;2022-09-03T13:01:40;1.02;;;0.50;;
48285;SDS011;34102;47.716;10.296;2022-09-03T13:04:08;0.47;;;0.25;;
48285;SDS011;34102;47.716;10.296;2022-09-03T13:06:39;1.88;;;0.60;;
48285;SDS011;34102;47.716;10.296;2022-09-03T13:09:09;1.90;;;0.70;;
48285;SDS011;34102;47.716;10.296;2022-09-03T13:11:37;1.88;;;0.70;;
48285;SDS011;34102;47.716;10.296;2022-09-03T13:14:07;0.90;;;0.57;;
48285;SDS011;34102;47.716;10.296;2022-09-03T13:22:08;2.38;;;0.80;;
48285;SDS011;34102;47.716;10.296;2022-09-03T13:32:24;0.95;;;0.50;;
48285;SDS011;34102;47.716;10.296;2022-09-03T13:35:01;3.20;;;1.83;;
48285;SDS011;34102;47.716;10.296;2022-09-03T13:39:54;1.53;;;0.73;;
48285;SDS011;34102;47.716;10.296;2022-09-03T13:42:31;0.98;;;0.50;;
48285;SDS011;34102;47.716;10.296;2022-09-03T13:45:00;4.90;;;1.05;;
48285;SDS011;34102;47.716;10.296;2022-09-03T13:47:34;1.23;;;0.70;;
48285;SDS011;34102;47.716;10.296;2022-09-03T13:50:10;2.28;;;1.40;;
48285;SDS011;34102;47.716;10.296;2022-09-03T13:52:49;5.57;;;1.92;;
48285;SDS011;34102;47.716;10.296;2022-09-03T13:57:58;3.08;;;1.50;;
48285;SDS011;34102;47.716;10.296;2022-09-03T14:15:35;13.23;;;11.85;;
48285;SDS011;34102;47.716;10.296;2022-09-03T14:20:40;13.52;;;12.23;;
48285;SDS011;34102;47.716;10.296;2022-09-03T14:25:54;1.60;;;0.95;;
48285;SDS011;34102;47.716;10.296;2022-09-03T14:28:35;1.98;;;0.60;;
48285;SDS011;34102;47.716;10.296;2022-09-03T14:41:41;0.90;;;0.43;;
48285;SDS011;34102;47.716;10.296;2022-09-03T14:46:38;2.65;;;0.45;;
48285;SDS011;34102;47.716;10.296;2022-09-03T14:59:23;0.50;;;0.20;;
48285;SDS011;34102;47.716;10.296;2022-09-03T15:02:04;1.05;;;0.17;;
48285;SDS011;34102;47.716;10.296;2022-09-03T15:12:29;0.40;;;0.20;;
48285;SDS011;34102;47.716;10.296;2022-09-03T15:15:01;1.13;;;0.40;;
48285;SDS011;34102;47.716;10.296;2022-09-03T15:22:35;5.47;;;1.10;;
48285;SDS011;34102;47.716;10.296;2022-09-03T15:27:55;2.83;;;0.22;;
48285;SDS011;34102;47.716;10.296;2022-09-03T15:30:23;1.77;;;0.40;;
48285;SDS011;34102;47.716;10.296;2022-09-03T15:38:01;2.53;;;1.45;;
48285;SDS011;34102;47.716;10.296;2022-09-03T15:40:30;1.58;;;0.68;;
48285;SDS011;34102;47.716;10.296;2022-09-03T15:43:05;2.47;;;0.47;;
48285;SDS011;34102;47.716;10.296;2022-09-03T15:45:37;3.55;;;0.60;;
48285;SDS011;34102;47.716;10.296;2022-09-03T15:48:20;1.88;;;0.70;;
48285;SDS011;34102;47.716;10.296;2022-09-03T15:50:51;4.35;;;1.67;;
48285;SDS011;34102;47.716;10.296;2022-09-03T15:53:29;3.42;;;1.00;;
48285;SDS011;34102;47.716;10.296;2022-09-03T15:56:42;4.45;;;1.05;;
48285;SDS011;34102;47.716;10.296;2022-09-03T16:03:38;0.98;;;0.43;;
48285;SDS011;34102;47.716;10.296;2022-09-03T16:09:01;0.80;;;0.30;;
48285;SDS011;34102;47.716;10.296;2022-09-03T16:11:38;0.90;;;0.32;;
48285;SDS011;34102;47.716;10.296;2022-09-03T16:21:41;0.30;;;0.20;;
48285;SDS011;34102;47.716;10.296;2022-09-03T16:24:12;1.60;;;0.40;;
48285;SDS011;34102;47.716;10.296;2022-09-03T16:26:52;1.25;;;0.35;;
48285;SDS011;34102;47.716;10.296;2022-09-03T16:29:23;1.13;;;0.50;;
48285;SDS011;34102;47.716;10.296;2022-09-03T16:42:13;2.08;;;0.43;;
48285;SDS011;34102;47.716;10.296;2022-09-03T16:44:48;0.45;;;0.30;;
48285;SDS011;34102;47.716;10.296;2022-09-03T16:47:26;0.75;;;0.30;;
48285;SDS011;34102;47.716;10.296;2022-09-03T16:50:58;1.85;;;0.30;;
48285;SDS011;34102;47.716;10.296;2022-09-03T16:55:26;0.38;;;0.22;;
48285;SDS011;34102;47.716;10.296;2022-09-03T17:00:41;0.90;;;0.40;;
48285;SDS011;34102;47.716;10.296;2022-09-03T17:06:06;0.55;;;0.20;;
48285;SDS011;34102;47.716;10.296;2022-09-03T17:36:13;0.95;;;0.63;;
48285;SDS011;34102;47.716;10.296;2022-09-03T17:43:48;1.10;;;0.50;;
48285;SDS011;34102;47.716;10.296;2022-09-03T17:54:07;1.08;;;0.47;;
48285;SDS011;34102;47.716;10.296;2022-09-03T17:56:46;4.25;;;0.70;;
48285;SDS011;34102;47.716;10.296;2022-09-03T17:59:15;1.33;;;0.80;;
48285;SDS011;34102;47.716;10.296;2022-09-03T18:01:50;1.77;;;1.00;;
48285;SDS011;34102;47.716;10.296;2022-09-03T18:04:25;1.67;;;0.80;;
48285;SDS011;34102;47.716;10.296;2022-09-03T18:06:54;1.10;;;0.60;;
48285;SDS011;34102;47.716;10.296;2022-09-03T18:09:23;2.15;;;0.57;;
48285;SDS011;34102;47.716;10.296;2022-09-03T18:12:03;2.40;;;0.70;;
48285;SDS011;34102;47.716;10.296;2022-09-03T18:14:32;1.10;;;0.63;;
48285;SDS011;34102;47.716;10.296;2022-09-03T18:19:44;4.30;;;0.90;;
48285;SDS011;34102;47.716;10.296;2022-09-03T18:22:51;3.00;;;0.63;;
48285;SDS011;34102;47.716;10.296;2022-09-03T18:25:32;3.95;;;1.38;;
48285;SDS011;34102;47.716;10.296;2022-09-03T18:28:18;3.78;;;1.08;;
48285;SDS011;34102;47.716;10.296;2022-09-03T18:31:07;3.58;;;1.10;;
48285;SDS011;34102;47.716;10.296;2022-09-03T18:33:52;3.20;;;1.00;;
48285;SDS011;34102;47.716;10.296;2022-09-03T18:36:36;3.63;;;1.20;;
48285;SDS011;34102;47.716;10.296;2022-09-03T18:39:25;2.95;;;0.82;;
48285;SDS011;34102;47.716;10.296;2022-09-03T18:42:13;1.35;;;1.00;;
48285;SDS011;34102;47.716;10.296;2022-09-03T18:54:24;1.45;;;0.80;;
48285;SDS011;34102;47.716;10.296;2022-09-03T18:57:30;5.70;;;0.90;;
48285;SDS011;34102;47.716;10.296;2022-09-03T19:00:17;1.27;;;0.80;;
48285;SDS011;34102;47.716;10.296;2022-09-03T19:03:07;2.05;;;0.80;;
48285;SDS011;34102;47.716;10.296;2022-09-03T19:23:08;1.55;;;0.90;;
48285;SDS011;34102;47.716;10.296;2022-09-03T19:28:38;2.40;;;0.90;;
48285;SDS011;34102;47.716;10.296;2022-09-03T19:37:10;2.72;;;1.10;;
48285;SDS011;34102;47.716;10.296;2022-09-03T19:49:15;1.70;;;0.70;;
48285;SDS011;34102;47.716;10.296;2022-09-03T19:52:07;5.25;;;3.55;;
48285;SDS011;34102;47.716;10.296;2022-09-03T19:54:55;2.53;;;1.55;;
48285;SDS011;34102;47.716;10.296;2022-09-03T19:57:41;1.77;;;0.80;;
48285;SDS011;34102;47.716;10.296;2022-09-03T20:00:26;2.05;;;1.10;;
48285;SDS011;34102;47.716;10.296;2022-09-03T20:03:10;1.52;;;0.88;;
48285;SDS011;34102;47.716;10.296;2022-09-03T20:05:56;1.15;;;0.82;;
48285;SDS011;34102;47.716;10.296;2022-09-03T20:08:39;1.77;;;1.13;;
48285;SDS011;34102;47.716;10.296;2022-09-03T20:11:24;2.00;;;1.20;;
48285;SDS011;34102;47.716;10.296;2022-09-03T20:13:51;2.55;;;1.30;;
48285;SDS011;34102;47.716;10.296;2022-09-03T20:16:38;2.30;;;0.88;;
48285;SDS011;34102;47.716;10.296;2022-09-03T20:21:54;2.25;;;1.00;;
48285;SDS011;34102;47.716;10.296;2022-09-03T20:26:54;2.13;;;1.02;;
48285;SDS011;34102;47.716;10.296;2022-09-03T20:32:10;1.48;;;0.70;;
48285;SDS011;34102;47.716;10.296;2022-09-03T20:37:30;3.05;;;0.90;;
48285;SDS011;34102;47.716;10.296;2022-09-03T20:45:03;2.40;;;0.93;;
48285;SDS011;34102;47.716;10.296;2022-09-03T20:55:16;1.58;;;0.73;;
48285;SDS011;34102;47.716;10.296;2022-09-03T21:00:14;2.30;;;1.00;;
48285;SDS011;34102;47.716;10.296;2022-09-03T21:05:19;2.50;;;1.83;;
48285;SDS011;34102;47.716;10.296;2022-09-03T21:15:38;1.77;;;0.90;;
48285;SDS011;34102;47.716;10.296;2022-09-03T21:25:48;2.28;;;0.98;;
48285;SDS011;34102;47.716;10.296;2022-09-03T21:28:31;2.75;;;1.10;;
48285;SDS011;34102;47.716;10.296;2022-09-03T21:31:01;1.25;;;0.85;;
48285;SDS011;34102;47.716;10.296;2022-09-03T21:33:33;2.05;;;1.10;;
48285;SDS011;34102;47.716;10.296;2022-09-03T21:36:07;2.47;;;0.95;;
48285;SDS011;34102;47.716;10.296;2022-09-03T21:43:41;2.92;;;0.80;;
48285;SDS011;34102;47.716;10.296;2022-09-03T21:46:12;1.92;;;1.02;;
48285;SDS011;34102;47.716;10.296;2022-09-03T21:48:41;1.48;;;0.75;;
48285;SDS011;34102;47.716;10.296;2022-09-03T21:51:30;1.30;;;0.90;;
48285;SDS011;34102;47.716;10.296;2022-09-03T21:54:08;2.92;;;0.90;;
48285;SDS011;34102;47.716;10.296;2022-09-03T21:56:52;1.10;;;0.85;;
48285;SDS011;34102;47.716;10.296;2022-09-03T22:04:17;1.80;;;0.73;;
48285;SDS011;34102;47.716;10.296;2022-09-03T22:09:31;2.38;;;0.90;;
48285;SDS011;34102;47.716;10.296;2022-09-03T22:12:03;1.45;;;0.70;;
48285;SDS011;34102;47.716;10.296;2022-09-03T22:14:33;2.47;;;2.00;;
48285;SDS011;34102;47.716;10.296;2022-09-03T22:17:08;1.33;;;1.20;;
48285;SDS011;34102;47.716;10.296;2022-09-03T22:22:01;3.00;;;1.83;;
48285;SDS011;34102;47.716;10.296;2022-09-03T22:29:52;4.40;;;1.58;;
48285;SDS011;34102;47.716;10.296;2022-09-03T22:32:37;3.15;;;1.65;;
48285;SDS011;34102;47.716;10.296;2022-09-03T22:38:08;2.67;;;0.77;;
48285;SDS011;34102;47.716;10.296;2022-09-03T22:50:31;1.55;;;0.88;;
48285;SDS011;34102;47.716;10.296;2022-09-03T22:55:29;2.85;;;1.30;;
48285;SDS011;34102;47.716;10.296;2022-09-03T22:58:04;1.02;;;0.88;;
